createdAt,value
2022-10-03T00:03:26.570Z,7.50
2022-10-03T00:08:57.941Z,7.78
2022-10-03T00:14:07.609Z,8.07
2022-10-03T00:19:24.513Z,6.70
2022-10-03T00:24:42.342Z,8.52
2022-10-03T00:29:57.508Z,10.43
2022-10-03T00:35:20.225Z,11.75
2022-10-03T00:41:27.763Z,9.18
2022-10-03T00:47:05.469Z,8.60
2022-10-03T00:52:39.640Z,8.52
2022-10-03T00:57:58.927Z,10.07
2022-10-03T01:03:16.896Z,10.32
2022-10-03T01:09:06.818Z,6.30
2022-10-03T01:14:24.931Z,7.75
2022-10-03T01:19:49.377Z,7.55
2022-10-03T01:24:58.476Z,12.63
2022-10-03T01:30:23.827Z,11.77
2022-10-03T01:35:46.582Z,13.38
2022-10-03T01:40:57.086Z,12.93
2022-10-03T01:46:13.173Z,11.90
2022-10-03T01:51:21.974Z,10.57
2022-10-03T01:56:32.580Z,12.77
2022-10-03T02:01:47.953Z,10.35
2022-10-03T02:06:59.263Z,10.43
2022-10-03T02:12:17.786Z,10.68
2022-10-03T02:17:44.974Z,11.30
2022-10-03T02:22:54.128Z,11.50
2022-10-03T02:28:25.564Z,15.23
2022-10-03T02:33:58.646Z,14.00
2022-10-03T02:39:26.671Z,13.27
2022-10-03T02:44:56.872Z,13.90
2022-10-03T02:50:44.833Z,12.38
2022-10-03T02:56:29.359Z,12.90
2022-10-03T03:01:53.350Z,10.93
2022-10-03T03:07:18.293Z,11.63
2022-10-03T03:12:45.390Z,15.93
2022-10-03T03:17:58.936Z,8.63
2022-10-03T03:23:29.507Z,19.35
2022-10-03T03:28:43.901Z,11.82
2022-10-03T03:33:56.639Z,12.32
2022-10-03T03:39:11.193Z,12.40
2022-10-03T03:44:47.948Z,15.93
2022-10-03T03:50:12.698Z,9.85
2022-10-03T03:55:37.468Z,18.63
2022-10-03T04:01:08.297Z,14.77
2022-10-03T04:06:27.653Z,17.08
2022-10-03T04:11:49.798Z,14.27
2022-10-03T04:17:27.448Z,13.40
2022-10-03T04:22:52.812Z,11.48
2022-10-03T04:28:26.759Z,13.10
2022-10-03T04:33:41.840Z,13.85
2022-10-03T04:38:55.212Z,11.48
2022-10-03T04:44:06.028Z,12.27
2022-10-03T04:49:17.600Z,14.23
2022-10-03T04:54:28.893Z,12.63
2022-10-03T04:59:46.328Z,15.02
2022-10-03T05:05:13.280Z,9.30
2022-10-03T05:10:29.449Z,12.10
2022-10-03T05:15:41.153Z,12.55
2022-10-03T05:20:57.602Z,11.30
2022-10-03T05:26:39.751Z,19.23
2022-10-03T05:31:45.044Z,14.48
2022-10-03T05:37:04.272Z,16.55
2022-10-03T05:42:38.108Z,17.05
2022-10-03T05:47:51.686Z,14.90
2022-10-03T05:53:34.053Z,13.25
2022-10-03T05:58:58.541Z,12.93
2022-10-03T06:04:27.456Z,14.63
2022-10-03T06:10:02.931Z,10.75
2022-10-03T06:15:36.598Z,10.50
2022-10-03T06:21:13.342Z,10.57
2022-10-03T06:26:39.008Z,10.93
2022-10-03T06:32:26.196Z,14.27
2022-10-03T06:38:11.272Z,12.45
2022-10-03T06:43:43.941Z,12.43
2022-10-03T06:49:29.248Z,5.88
2022-10-03T06:55:15.048Z,9.77
2022-10-03T07:00:22.317Z,13.25
2022-10-03T07:06:01.885Z,11.48
2022-10-03T07:11:18.304Z,15.02
2022-10-03T07:16:51.086Z,10.60
2022-10-03T07:22:25.013Z,6.57
2022-10-03T07:33:17.357Z,4.85
2022-10-03T07:39:01.719Z,4.68
2022-10-03T07:44:42.917Z,6.60
2022-10-03T07:50:45.455Z,9.25
2022-10-03T07:56:00.438Z,7.07
2022-10-03T08:01:21.687Z,7.38
2022-10-03T08:06:36.827Z,6.15
2022-10-03T08:11:55.033Z,3.97
2022-10-03T08:17:26.055Z,7.10
2022-10-03T08:22:45.634Z,5.63
2022-10-03T08:28:27.168Z,7.68
2022-10-03T08:33:50.048Z,5.90
2022-10-03T08:39:06.323Z,6.13
2022-10-03T08:44:42.436Z,5.93
2022-10-03T08:50:08.994Z,4.80
2022-10-03T08:55:42.580Z,6.57
2022-10-03T09:01:09.223Z,5.10
2022-10-03T09:07:12.188Z,4.43
2022-10-03T09:13:05.218Z,5.13
2022-10-03T09:18:34.921Z,3.58
2022-10-03T09:24:28.030Z,6.80
2022-10-03T09:29:55.945Z,3.38
2022-10-03T09:35:34.963Z,7.03
2022-10-03T09:41:29.395Z,4.65
2022-10-03T09:47:23.542Z,6.53
2022-10-03T09:52:43.678Z,9.17
2022-10-03T09:58:26.118Z,6.30
2022-10-03T10:04:01.539Z,4.35
2022-10-03T10:09:50.745Z,5.20
2022-10-03T10:15:18.909Z,4.55
2022-10-03T10:20:46.921Z,4.22
2022-10-03T10:26:30.474Z,4.28
2022-10-03T10:32:21.747Z,3.27
2022-10-03T10:37:55.224Z,4.45
2022-10-03T10:43:35.090Z,5.73
2022-10-03T10:49:23.456Z,4.18
2022-10-03T10:55:05.344Z,7.18
2022-10-03T11:00:21.807Z,9.05
2022-10-03T11:05:49.517Z,5.25
2022-10-03T11:11:14.364Z,5.68
2022-10-03T11:17:01.243Z,6.47
2022-10-03T11:22:35.317Z,7.55
2022-10-03T11:28:45.269Z,5.75
2022-10-03T11:34:23.064Z,8.18
2022-10-03T11:39:35.499Z,5.75
2022-10-03T11:44:47.229Z,9.20
2022-10-03T11:50:22.779Z,7.03
2022-10-03T11:55:34.003Z,7.90
2022-10-03T12:00:40.221Z,7.93
2022-10-03T12:06:12.928Z,6.43
2022-10-03T12:11:24.349Z,10.38
2022-10-03T12:16:31.526Z,5.22
2022-10-03T12:21:49.598Z,7.80
2022-10-03T12:26:59.805Z,6.72
2022-10-03T12:32:17.079Z,4.68
2022-10-03T12:37:39.939Z,7.90
2022-10-03T12:42:49.935Z,5.73
2022-10-03T12:48:09.459Z,8.60
2022-10-03T12:53:25.916Z,10.93
2022-10-03T12:58:39.866Z,6.93
2022-10-03T13:03:52.904Z,10.48
2022-10-03T13:09:12.252Z,9.80
2022-10-03T13:14:32.221Z,8.38
2022-10-03T13:19:48.099Z,6.43
2022-10-03T13:25:03.620Z,9.35
2022-10-03T13:30:17.550Z,7.38
2022-10-03T13:35:49.258Z,6.53
2022-10-03T13:41:03.354Z,7.68
2022-10-03T13:46:16.418Z,5.00
2022-10-03T13:51:27.855Z,8.43
2022-10-03T13:56:49.273Z,6.40
2022-10-03T14:02:01.867Z,9.60
2022-10-03T14:07:14.699Z,8.52
2022-10-03T14:12:43.939Z,5.50
2022-10-03T14:18:00.744Z,6.57
2022-10-03T14:23:21.599Z,11.55
2022-10-03T14:28:32.572Z,10.65
2022-10-03T14:33:47.684Z,8.70
2022-10-03T14:39:13.418Z,10.10
2022-10-03T14:44:25.778Z,6.90
2022-10-03T14:49:53.533Z,6.70
2022-10-03T14:54:58.426Z,7.53
2022-10-03T15:00:05.253Z,10.00
2022-10-03T15:05:15.406Z,5.97
2022-10-03T15:10:24.857Z,6.95
2022-10-03T15:15:31.813Z,7.28
2022-10-03T15:20:38.727Z,7.25
2022-10-03T15:25:43.730Z,9.00
2022-10-03T15:30:50.121Z,12.45
2022-10-03T15:35:59.332Z,11.80
2022-10-03T15:41:10.824Z,9.75
2022-10-03T15:46:35.883Z,10.25
2022-10-03T15:51:40.255Z,11.18
2022-10-03T15:56:46.229Z,8.93
2022-10-03T16:01:55.570Z,9.52
2022-10-03T16:07:04.253Z,8.18
2022-10-03T16:12:29.034Z,10.82
2022-10-03T16:17:44.078Z,7.82
2022-10-03T16:22:51.039Z,15.25
2022-10-03T16:27:58.794Z,9.50
2022-10-03T16:33:12.906Z,7.07
2022-10-03T16:38:22.314Z,10.65
2022-10-03T16:43:27.374Z,10.93
2022-10-03T16:48:52.305Z,7.85
2022-10-03T16:53:58.083Z,10.45
2022-10-03T16:59:07.330Z,13.02
2022-10-03T17:04:22.425Z,10.10
2022-10-03T17:09:32.974Z,12.07
2022-10-03T17:14:39.878Z,15.25
2022-10-03T17:19:47.546Z,15.15
2022-10-03T17:24:54.467Z,13.95
2022-10-03T17:30:03.413Z,12.02
2022-10-03T17:35:15.610Z,10.30
2022-10-03T17:40:23.495Z,18.45
2022-10-03T17:45:34.564Z,11.88
2022-10-03T17:50:52.507Z,15.65
2022-10-03T17:55:58.816Z,11.07
2022-10-03T18:01:11.158Z,15.18
2022-10-03T18:06:43.743Z,16.48
2022-10-03T18:11:49.865Z,10.75
2022-10-03T18:16:56.755Z,12.88
2022-10-03T18:22:09.224Z,9.30
2022-10-03T18:27:52.187Z,8.47
2022-10-03T18:33:01.461Z,14.55
2022-10-03T18:38:14.160Z,18.52
2022-10-03T18:43:36.358Z,11.00
2022-10-03T18:49:03.101Z,10.82
2022-10-03T18:54:27.644Z,10.23
2022-10-03T18:59:39.503Z,6.97
2022-10-03T19:04:46.873Z,12.43
2022-10-03T19:10:21.323Z,11.00
2022-10-03T19:15:38.917Z,15.32
2022-10-03T19:20:45.116Z,8.95
2022-10-03T19:25:56.627Z,10.13
2022-10-03T19:31:05.675Z,10.45
2022-10-03T19:36:16.849Z,8.57
2022-10-03T19:41:29.986Z,10.48
2022-10-03T19:46:51.799Z,6.75
2022-10-03T19:52:11.993Z,8.23
2022-10-03T19:57:19.669Z,11.05
2022-10-03T20:02:25.001Z,9.40
2022-10-03T20:07:45.847Z,7.05
2022-10-03T20:12:53.585Z,8.23
2022-10-03T20:18:02.657Z,8.60
2022-10-03T20:23:08.241Z,5.75
2022-10-03T20:28:20.757Z,8.55
2022-10-03T20:33:27.952Z,10.13
2022-10-03T20:38:49.174Z,7.63
2022-10-03T20:44:00.965Z,7.10
2022-10-03T20:49:20.039Z,6.63
2022-10-03T20:54:25.851Z,9.80
2022-10-03T20:59:38.260Z,8.45
2022-10-03T21:04:51.326Z,10.50
2022-10-03T21:15:07.752Z,10.48
2022-10-03T21:20:16.222Z,8.43
2022-10-03T21:25:23.266Z,6.07
2022-10-03T21:30:46.949Z,9.77
2022-10-03T21:35:51.890Z,10.02
2022-10-03T21:41:25.498Z,5.97
2022-10-03T21:46:39.653Z,9.63
2022-10-03T21:52:01.381Z,8.82
2022-10-03T21:57:15.434Z,10.27
2022-10-03T22:02:28.308Z,8.38
2022-10-03T22:07:38.656Z,10.63
2022-10-03T22:12:44.102Z,8.95
2022-10-03T22:17:55.856Z,10.68
2022-10-03T22:23:20.349Z,12.20
2022-10-03T22:28:37.738Z,7.50
2022-10-03T22:33:56.997Z,9.45
2022-10-03T22:39:00.327Z,10.73
2022-10-03T22:44:08.012Z,13.32
2022-10-03T22:49:19.877Z,11.32
2022-10-03T22:54:24.379Z,10.45
2022-10-03T22:59:32.490Z,12.73
2022-10-03T23:04:41.545Z,9.98
2022-10-03T23:09:57.593Z,9.52
2022-10-03T23:15:04.365Z,6.13
2022-10-03T23:20:20.185Z,4.82
2022-10-03T23:25:28.640Z,12.27
2022-10-03T23:30:55.834Z,10.32
2022-10-03T23:36:04.660Z,11.43
2022-10-03T23:41:14.354Z,11.55
2022-10-03T23:46:21.311Z,10.40
2022-10-03T23:51:35.789Z,9.43
2022-10-03T23:56:42.887Z,9.43
